createdAt,value
2022-10-12T00:01:35.708Z,95.10
2022-10-12T00:04:02.803Z,95.10
2022-10-12T00:06:29.871Z,95.10
2022-10-12T00:08:56.754Z,95.10
2022-10-12T00:11:28.918Z,95.20
2022-10-12T00:13:58.254Z,95.10
2022-10-12T00:16:26.509Z,95.00
2022-10-12T00:18:56.539Z,95.00
2022-10-12T00:21:25.642Z,95.10
2022-10-12T00:24:01.717Z,95.10
2022-10-12T00:26:30.018Z,95.20
2022-10-12T00:29:00.276Z,95.20
2022-10-12T00:31:29.732Z,95.30
2022-10-12T00:34:02.257Z,95.40
2022-10-12T00:36:35.782Z,95.30
2022-10-12T00:39:07.559Z,95.40
2022-10-12T00:41:43.262Z,95.40
2022-10-12T00:44:44.490Z,95.40
2022-10-12T00:47:28.171Z,95.40
2022-10-12T00:50:18.376Z,95.40
2022-10-12T00:53:05.804Z,95.40
2022-10-12T00:55:39.787Z,95.40
2022-10-12T00:58:09.076Z,95.40
2022-10-12T01:00:38.923Z,95.40
2022-10-12T01:03:09.693Z,95.30
2022-10-12T01:05:40.753Z,95.30
2022-10-12T01:08:07.611Z,95.40
2022-10-12T01:10:34.413Z,95.30
2022-10-12T01:13:02.219Z,95.30
2022-10-12T01:15:59.642Z,95.30
2022-10-12T01:18:52.130Z,95.30
2022-10-12T01:21:23.451Z,95.30
2022-10-12T01:24:31.640Z,95.30
2022-10-12T01:27:24.148Z,95.50
2022-10-12T01:29:56.944Z,95.30
2022-10-12T01:32:32.943Z,95.30
2022-10-12T01:35:19.949Z,95.30
2022-10-12T01:38:20.865Z,95.30
2022-10-12T01:41:06.343Z,95.30
2022-10-12T01:43:37.314Z,95.30
2022-10-12T01:46:13.385Z,95.20
2022-10-12T01:48:43.054Z,95.30
2022-10-12T01:51:17.217Z,95.30
2022-10-12T01:53:57.211Z,95.40
2022-10-12T01:56:47.181Z,95.50
2022-10-12T01:59:58.688Z,95.60
2022-10-12T02:03:15.011Z,95.50
2022-10-12T02:05:55.119Z,95.50
2022-10-12T02:08:34.833Z,95.50
2022-10-12T02:11:21.458Z,95.40
2022-10-12T02:13:58.236Z,95.40
2022-10-12T02:16:38.655Z,95.40
2022-10-12T02:19:15.185Z,95.30
2022-10-12T02:21:50.656Z,95.30
2022-10-12T02:24:22.341Z,95.40
2022-10-12T02:26:56.648Z,95.40
2022-10-12T02:29:36.547Z,95.40
2022-10-12T02:32:17.872Z,95.40
2022-10-12T02:34:58.871Z,95.40
2022-10-12T02:37:44.365Z,95.40
2022-10-12T02:40:28.305Z,95.40
2022-10-12T02:43:10.515Z,95.40
2022-10-12T02:45:46.440Z,95.40
2022-10-12T02:51:15.346Z,95.30
2022-10-12T02:53:47.874Z,95.50
2022-10-12T02:56:22.267Z,95.50
2022-10-12T02:58:55.976Z,95.60
2022-10-12T03:13:35.904Z,95.60
2022-10-12T03:26:06.316Z,95.80
2022-10-12T03:28:33.950Z,95.90
2022-10-12T03:31:00.970Z,95.90
2022-10-12T03:33:28.026Z,95.90
2022-10-12T03:35:54.963Z,96.00
2022-10-12T03:38:21.855Z,95.90
2022-10-12T03:40:48.694Z,96.00
2022-10-12T03:43:15.543Z,96.00
2022-10-12T03:45:42.526Z,95.90
2022-10-12T03:48:10.044Z,96.00
2022-10-12T03:50:37.181Z,96.00
2022-10-12T03:53:06.250Z,96.10
2022-10-12T03:55:33.576Z,96.10
2022-10-12T03:58:00.698Z,96.10
2022-10-12T04:00:28.549Z,96.10
2022-10-12T04:02:56.095Z,96.10
2022-10-12T04:05:23.326Z,96.20
2022-10-12T04:07:51.263Z,96.30
2022-10-12T04:10:18.465Z,96.40
2022-10-12T04:12:46.652Z,96.40
2022-10-12T04:15:14.469Z,96.50
2022-10-12T04:17:41.836Z,96.50
2022-10-12T04:20:11.394Z,96.60
2022-10-12T04:22:39.939Z,96.60
2022-10-12T04:25:07.548Z,96.60
2022-10-12T04:27:34.956Z,96.60
2022-10-12T04:30:02.051Z,96.70
2022-10-12T04:32:29.656Z,96.70
2022-10-12T04:34:57.035Z,96.70
2022-10-12T04:37:23.873Z,96.70
2022-10-12T04:39:50.883Z,96.80
2022-10-12T04:42:19.184Z,96.90
2022-10-12T04:44:46.935Z,96.90
2022-10-12T04:47:13.873Z,96.90
2022-10-12T04:49:40.696Z,96.90
2022-10-12T04:52:07.506Z,97.00
2022-10-12T04:54:34.442Z,97.10
2022-10-12T04:57:01.714Z,97.10
2022-10-12T04:59:28.598Z,97.30
2022-10-12T05:01:55.537Z,97.20
2022-10-12T05:04:22.785Z,97.20
2022-10-12T05:06:49.736Z,97.10
2022-10-12T05:09:17.472Z,97.10
2022-10-12T05:11:44.603Z,97.00
2022-10-12T05:14:12.138Z,97.00
2022-10-12T05:16:39.540Z,97.00
2022-10-12T05:19:06.622Z,96.90
2022-10-12T05:21:34.905Z,96.90
2022-10-12T05:24:01.988Z,96.90
2022-10-12T05:26:29.274Z,96.80
2022-10-12T05:28:56.275Z,96.70
2022-10-12T05:31:23.552Z,96.70
2022-10-12T05:33:50.892Z,96.70
2022-10-12T05:36:17.817Z,96.70
2022-10-12T05:38:44.808Z,96.60
2022-10-12T05:41:11.946Z,96.80
2022-10-12T05:43:39.257Z,96.60
2022-10-12T05:46:06.995Z,96.50
2022-10-12T05:48:35.149Z,96.50
2022-10-12T05:51:02.264Z,96.50
2022-10-12T05:53:29.201Z,96.50
2022-10-12T05:55:59.633Z,96.40
2022-10-12T05:58:28.857Z,96.40
2022-10-12T06:01:04.706Z,96.40
2022-10-12T06:03:34.856Z,96.40
2022-10-12T06:06:04.191Z,96.50
2022-10-12T06:08:32.566Z,96.50
2022-10-12T06:10:59.981Z,96.60
2022-10-12T06:13:27.972Z,96.60
2022-10-12T06:15:55.560Z,96.50
2022-10-12T06:18:23.086Z,96.80
2022-10-12T06:21:14.846Z,96.50
2022-10-12T06:23:41.187Z,96.50
2022-10-12T06:26:08.056Z,96.60
2022-10-12T06:28:35.021Z,96.60
2022-10-12T06:31:02.096Z,96.70
2022-10-12T06:33:29.645Z,96.80
2022-10-12T06:35:57.566Z,96.80
2022-10-12T06:38:25.326Z,96.80
2022-10-12T06:40:53.630Z,96.90
2022-10-12T06:43:23.403Z,96.90
2022-10-12T06:45:56.437Z,96.90
2022-10-12T06:48:25.737Z,96.90
2022-10-12T06:50:54.840Z,96.90
2022-10-12T06:53:28.995Z,96.90
2022-10-12T06:55:59.584Z,97.20
2022-10-12T06:58:26.939Z,97.70
2022-10-12T07:00:56.058Z,98.00
2022-10-12T07:03:25.087Z,97.90
2022-10-12T07:05:56.424Z,97.80
2022-10-12T07:08:25.507Z,98.20
2022-10-12T07:11:13.389Z,97.70
2022-10-12T07:13:42.872Z,97.60
2022-10-12T07:16:12.298Z,97.20
2022-10-12T07:18:42.471Z,96.70
2022-10-12T07:21:10.502Z,96.50
2022-10-12T07:23:42.381Z,96.20
2022-10-12T07:26:14.979Z,95.30
2022-10-12T07:28:44.113Z,94.30
2022-10-12T07:31:16.174Z,94.40
2022-10-12T07:33:47.623Z,94.60
2022-10-12T07:36:21.545Z,93.90
2022-10-12T07:38:55.029Z,92.30
2022-10-12T07:41:22.098Z,91.90
2022-10-12T07:43:54.326Z,92.00
2022-10-12T07:46:21.295Z,90.60
2022-10-12T07:48:50.424Z,91.40
2022-10-12T07:51:18.407Z,91.40
2022-10-12T07:53:45.846Z,91.90
2022-10-12T07:56:16.844Z,92.00
2022-10-12T07:58:53.114Z,92.10
2022-10-12T08:01:22.760Z,92.10
2022-10-12T08:03:50.320Z,92.10
2022-10-12T08:06:22.132Z,91.80
2022-10-12T08:08:50.586Z,91.10
2022-10-12T08:11:18.898Z,90.50
2022-10-12T08:13:46.511Z,90.40
2022-10-12T08:16:18.105Z,90.90
2022-10-12T08:18:44.995Z,91.10
2022-10-12T08:21:15.457Z,91.30
2022-10-12T08:23:45.013Z,90.90
2022-10-12T08:26:14.781Z,90.90
2022-10-12T08:28:42.043Z,90.60
2022-10-12T08:31:16.531Z,90.20
2022-10-12T08:33:44.052Z,90.30
2022-10-12T08:36:13.317Z,90.50
2022-10-12T08:38:40.648Z,90.10
2022-10-12T08:42:05.498Z,89.80
2022-10-12T08:45:07.556Z,87.80
2022-10-12T08:47:44.361Z,88.10
2022-10-12T08:50:35.831Z,87.60
2022-10-12T08:53:21.625Z,87.50
2022-10-12T08:55:55.786Z,87.20
2022-10-12T08:58:44.033Z,83.00
2022-10-12T09:01:30.450Z,82.50
2022-10-12T09:04:14.550Z,80.30
2022-10-12T09:06:55.445Z,75.90
2022-10-12T09:09:51.996Z,78.20
2022-10-12T09:13:30.566Z,78.80
2022-10-12T09:16:11.958Z,77.40
2022-10-12T09:18:44.592Z,72.80
2022-10-12T09:21:19.765Z,70.80
2022-10-12T09:23:48.104Z,71.10
2022-10-12T09:26:22.996Z,72.20
2022-10-12T09:28:57.462Z,73.20
2022-10-12T09:32:33.270Z,72.50
2022-10-12T09:35:00.517Z,72.30
2022-10-12T09:37:33.028Z,70.80
2022-10-12T09:40:00.260Z,71.60
2022-10-12T09:42:27.096Z,71.80
2022-10-12T09:45:19.054Z,70.40
2022-10-12T09:48:22.236Z,71.60
2022-10-12T09:51:01.144Z,68.20
2022-10-12T09:53:43.640Z,67.80
2022-10-12T09:56:30.340Z,67.10
2022-10-12T09:59:06.905Z,66.00
2022-10-12T10:01:38.310Z,65.70
2022-10-12T10:04:24.623Z,65.90
2022-10-12T10:06:51.849Z,66.20
2022-10-12T10:09:35.412Z,67.20
2022-10-12T10:12:26.765Z,66.70
2022-10-12T10:14:57.147Z,63.70
2022-10-12T10:17:33.967Z,64.60
2022-10-12T10:20:05.590Z,63.20
2022-10-12T10:22:32.877Z,62.70
2022-10-12T10:25:01.296Z,60.60
2022-10-12T10:27:39.902Z,59.80
2022-10-12T10:30:30.075Z,57.00
2022-10-12T10:33:19.575Z,57.80
2022-10-12T10:36:03.987Z,59.70
2022-10-12T10:38:44.823Z,57.20
2022-10-12T10:41:18.375Z,58.30
2022-10-12T10:43:49.997Z,57.80
2022-10-12T10:46:26.462Z,58.90
2022-10-12T10:49:06.094Z,55.60
2022-10-12T10:51:50.227Z,56.90
2022-10-12T10:54:31.370Z,57.10
2022-10-12T10:57:21.786Z,56.10
2022-10-12T11:00:14.191Z,55.00
2022-10-12T11:02:54.324Z,52.80
2022-10-12T11:05:31.766Z,53.90
2022-10-12T11:08:03.175Z,55.40
2022-10-12T11:10:54.615Z,54.70
2022-10-12T11:13:44.019Z,55.30
2022-10-12T11:16:43.552Z,56.60
2022-10-12T11:19:36.915Z,55.30
2022-10-12T11:22:25.788Z,53.90
2022-10-12T11:25:14.428Z,54.10
2022-10-12T11:27:42.276Z,54.90
2022-10-12T11:30:23.906Z,55.60
2022-10-12T11:33:06.606Z,56.70
2022-10-12T11:35:42.503Z,57.00
2022-10-12T11:38:22.294Z,55.90
2022-10-12T11:41:34.406Z,56.50
2022-10-12T11:44:16.321Z,56.90
2022-10-12T11:46:55.577Z,57.70
2022-10-12T11:49:59.771Z,58.00
2022-10-12T11:52:37.007Z,57.20
2022-10-12T11:55:24.201Z,57.80
2022-10-12T11:57:54.417Z,57.90
2022-10-12T12:00:32.617Z,58.40
2022-10-12T12:03:15.329Z,59.30
2022-10-12T12:05:42.679Z,59.30
2022-10-12T12:08:43.878Z,59.90
2022-10-12T12:11:30.306Z,59.50
2022-10-12T12:14:21.802Z,58.80
2022-10-12T12:16:49.631Z,58.30
2022-10-12T12:19:43.253Z,57.40
2022-10-12T12:22:32.384Z,58.30
2022-10-12T12:25:08.461Z,56.80
2022-10-12T12:27:43.793Z,56.00
2022-10-12T12:30:19.348Z,56.70
2022-10-12T12:32:51.648Z,56.60
2022-10-12T12:35:26.161Z,57.00
2022-10-12T12:38:18.753Z,56.40
2022-10-12T12:41:10.358Z,56.70
2022-10-12T12:43:57.141Z,57.10
2022-10-12T12:46:47.233Z,57.70
2022-10-12T12:49:39.342Z,57.50
2022-10-12T12:52:38.359Z,57.80
2022-10-12T12:55:39.065Z,58.40
2022-10-12T12:58:40.520Z,57.30
2022-10-12T13:01:20.893Z,57.80
2022-10-12T13:04:45.246Z,58.00
2022-10-12T13:07:42.440Z,57.30
2022-10-12T13:10:33.812Z,57.80
2022-10-12T13:13:44.624Z,58.10
2022-10-12T13:17:31.421Z,59.60
2022-10-12T13:19:44.813Z,59.50
2022-10-12T13:22:34.900Z,59.10
2022-10-12T13:25:23.766Z,58.80
2022-10-12T13:27:53.130Z,58.80
2022-10-12T13:30:54.623Z,60.30
2022-10-12T13:33:32.119Z,61.30
2022-10-12T13:36:09.013Z,61.30
2022-10-12T13:38:38.440Z,62.50
2022-10-12T13:41:11.329Z,63.20
2022-10-12T13:43:51.478Z,63.10
2022-10-12T13:46:41.685Z,64.30
2022-10-12T13:49:31.262Z,64.20
2022-10-12T13:52:19.964Z,64.60
2022-10-12T13:54:49.734Z,64.40
2022-10-12T13:57:41.209Z,64.80
2022-10-12T14:00:14.305Z,65.50
2022-10-12T14:02:43.544Z,65.70
2022-10-12T14:05:21.258Z,66.20
2022-10-12T14:07:52.364Z,67.00
2022-10-12T14:14:09.916Z,67.60
2022-10-12T14:16:47.243Z,67.90
2022-10-12T14:19:31.838Z,68.30
2022-10-12T14:22:01.037Z,68.80
2022-10-12T14:24:28.559Z,69.00
2022-10-12T14:27:02.848Z,69.20
2022-10-12T14:29:45.212Z,69.70
2022-10-12T14:32:11.968Z,70.10
2022-10-12T14:34:50.137Z,70.20
2022-10-12T14:37:17.848Z,70.30
2022-10-12T14:39:48.689Z,70.60
2022-10-12T14:42:30.718Z,70.20
2022-10-12T14:44:59.309Z,70.50
2022-10-12T14:47:33.547Z,70.70
2022-10-12T14:50:10.379Z,70.70
2022-10-12T14:53:11.816Z,71.00
2022-10-12T14:55:39.593Z,71.00
2022-10-12T14:58:08.134Z,71.50
2022-10-12T15:00:37.566Z,72.10
2022-10-12T15:03:05.281Z,71.20
2022-10-12T15:05:33.964Z,70.40
2022-10-12T15:08:07.087Z,69.80
2022-10-12T15:10:34.513Z,68.90
2022-10-12T15:13:01.451Z,69.20
2022-10-12T15:15:47.570Z,68.90
2022-10-12T15:18:14.405Z,68.20
2022-10-12T15:20:45.419Z,68.60
2022-10-12T15:23:15.299Z,69.20
2022-10-12T15:25:50.091Z,68.70
2022-10-12T15:28:17.448Z,68.50
2022-10-12T15:31:11.620Z,68.50
2022-10-12T15:33:32.148Z,69.60
2022-10-12T15:35:58.922Z,70.60
2022-10-12T15:38:25.747Z,71.60
2022-10-12T15:40:53.322Z,71.80
2022-10-12T15:43:20.451Z,72.60
2022-10-12T15:45:47.368Z,73.20
2022-10-12T15:48:14.064Z,73.10
2022-10-12T15:50:45.389Z,73.40
2022-10-12T15:53:23.865Z,73.90
2022-10-12T15:55:55.205Z,73.90
2022-10-12T15:58:23.450Z,74.40
2022-10-12T16:00:52.912Z,75.10
2022-10-12T16:06:02.690Z,76.90
2022-10-12T16:08:29.478Z,77.00
2022-10-12T16:10:57.052Z,77.50
2022-10-12T16:16:05.651Z,78.00
2022-10-12T16:18:32.472Z,78.30
2022-10-12T16:20:59.315Z,78.50
2022-10-12T16:23:35.961Z,78.80
2022-10-12T16:26:29.965Z,79.20
2022-10-12T16:29:03.493Z,80.20
2022-10-12T16:31:30.326Z,80.90
2022-10-12T16:34:09.603Z,81.50
2022-10-12T16:36:40.160Z,82.00
2022-10-12T16:39:06.965Z,82.30
2022-10-12T16:41:34.181Z,82.60
2022-10-12T16:44:01.652Z,83.10
2022-10-12T16:46:30.460Z,83.90
2022-10-12T16:48:57.208Z,84.70
2022-10-12T16:51:24.002Z,85.00
2022-10-12T16:53:50.997Z,85.60
2022-10-12T16:56:17.791Z,86.00
2022-10-12T16:58:44.583Z,86.10
2022-10-12T17:01:13.655Z,86.70
2022-10-12T17:03:40.912Z,87.10
2022-10-12T17:06:08.196Z,87.20
2022-10-12T17:08:36.710Z,87.60
2022-10-12T17:11:14.228Z,88.00
2022-10-12T17:13:45.323Z,88.50
2022-10-12T17:16:33.146Z,88.90
2022-10-12T17:19:00.360Z,89.00
2022-10-12T17:21:28.649Z,89.40
2022-10-12T17:24:00.602Z,89.90
2022-10-12T17:26:28.939Z,90.00
2022-10-12T17:28:56.321Z,90.10
2022-10-12T17:31:54.070Z,90.10
2022-10-12T17:34:33.713Z,90.10
2022-10-12T17:37:17.180Z,90.20
2022-10-12T17:40:10.819Z,90.40
2022-10-12T17:42:39.007Z,90.60
2022-10-12T17:45:07.326Z,90.70
2022-10-12T17:47:41.601Z,90.90
2022-10-12T17:50:28.977Z,90.90
2022-10-12T17:52:56.412Z,91.10
2022-10-12T17:55:47.163Z,91.10
2022-10-12T17:58:15.890Z,91.30
2022-10-12T18:00:43.069Z,91.40
2022-10-12T18:03:11.638Z,91.50
2022-10-12T18:05:38.985Z,91.70
2022-10-12T18:08:06.263Z,91.70
2022-10-12T18:10:33.690Z,91.70
2022-10-12T18:13:01.148Z,91.70
2022-10-12T18:15:51.752Z,91.80
2022-10-12T18:18:20.710Z,91.80
2022-10-12T18:20:49.094Z,92.00
2022-10-12T18:23:17.101Z,92.10
2022-10-12T18:25:55.377Z,92.10
2022-10-12T18:28:23.876Z,92.50
2022-10-12T18:30:53.543Z,92.70
2022-10-12T18:33:37.517Z,92.90
2022-10-12T18:36:11.925Z,93.00
2022-10-12T18:38:39.944Z,93.10
2022-10-12T18:41:30.204Z,93.30
2022-10-12T18:44:14.234Z,93.30
2022-10-12T18:46:44.902Z,93.30
2022-10-12T18:49:12.690Z,93.40
2022-10-12T18:51:43.687Z,93.60
2022-10-12T18:54:13.953Z,93.70
2022-10-12T18:56:42.208Z,93.60
2022-10-12T18:59:11.775Z,93.60
2022-10-12T19:01:39.705Z,93.70
2022-10-12T19:04:07.239Z,93.70
2022-10-12T19:06:39.208Z,93.80
2022-10-12T19:09:06.457Z,93.80
2022-10-12T19:11:34.594Z,93.90
2022-10-12T19:14:06.095Z,94.00
2022-10-12T19:16:34.705Z,94.00
2022-10-12T19:19:14.794Z,94.10
2022-10-12T19:21:49.043Z,94.30
2022-10-12T19:24:16.486Z,94.60
2022-10-12T19:26:44.565Z,94.70
2022-10-12T19:29:14.996Z,94.70
2022-10-12T19:31:50.111Z,94.80
2022-10-12T19:34:20.395Z,95.00
2022-10-12T19:36:48.556Z,95.20
2022-10-12T19:39:20.357Z,95.20
2022-10-12T19:41:49.277Z,95.20
2022-10-12T19:44:19.067Z,95.00
2022-10-12T19:46:49.843Z,95.10
2022-10-12T19:49:20.755Z,95.10
2022-10-12T19:51:48.965Z,95.10
2022-10-12T19:54:24.788Z,95.00
2022-10-12T19:56:54.482Z,95.00
2022-10-12T19:59:29.479Z,95.10
2022-10-12T20:01:58.580Z,95.10
2022-10-12T20:04:26.044Z,95.10
2022-10-12T20:06:53.948Z,95.20
2022-10-12T20:09:24.286Z,95.30
2022-10-12T20:11:53.133Z,95.40
2022-10-12T20:14:21.302Z,95.40
2022-10-12T20:16:53.329Z,95.40
2022-10-12T20:19:20.719Z,95.30
2022-10-12T20:21:48.434Z,95.30
2022-10-12T20:24:16.407Z,95.30
2022-10-12T20:26:44.177Z,95.30
2022-10-12T20:29:11.716Z,95.30
2022-10-12T20:31:40.940Z,95.20
2022-10-12T20:34:13.665Z,95.40
2022-10-12T20:36:52.876Z,95.60
2022-10-12T20:39:23.355Z,95.70
2022-10-12T20:41:53.039Z,95.80
2022-10-12T20:44:20.990Z,95.80
2022-10-12T20:46:58.511Z,95.60
2022-10-12T20:49:27.784Z,95.60
2022-10-12T20:52:07.109Z,95.80
2022-10-12T20:54:36.113Z,95.80
2022-10-12T20:57:08.289Z,95.80
2022-10-12T20:59:37.414Z,95.70
2022-10-12T21:02:10.609Z,95.70
2022-10-12T21:04:46.619Z,95.70
2022-10-12T21:07:18.126Z,95.70
2022-10-12T21:09:48.406Z,95.60
2022-10-12T21:12:19.025Z,95.70
2022-10-12T21:14:47.670Z,95.70
2022-10-12T21:17:18.534Z,95.80
2022-10-12T21:19:52.945Z,95.70
2022-10-12T21:22:20.852Z,95.70
2022-10-12T21:24:48.760Z,95.80
2022-10-12T21:27:16.205Z,95.70
2022-10-12T21:29:54.010Z,95.70
2022-10-12T21:32:23.473Z,95.80
2022-10-12T21:34:56.759Z,95.90
2022-10-12T21:37:24.551Z,95.80
2022-10-12T21:39:55.169Z,95.80
2022-10-12T21:42:23.088Z,95.70
2022-10-12T21:45:04.392Z,95.60
2022-10-12T21:47:38.345Z,95.60
2022-10-12T21:50:11.970Z,95.60
2022-10-12T21:52:40.563Z,95.50
2022-10-12T21:55:09.241Z,95.50
2022-10-12T21:57:37.619Z,95.50
2022-10-12T22:00:08.036Z,95.50
2022-10-12T22:02:39.836Z,95.60
2022-10-12T22:05:12.903Z,95.70
2022-10-12T22:07:43.700Z,95.90
2022-10-12T22:10:14.394Z,96.00
2022-10-12T22:12:47.218Z,96.10
2022-10-12T22:15:21.873Z,96.20
2022-10-12T22:17:51.164Z,96.30
2022-10-12T22:20:32.123Z,96.30
2022-10-12T22:23:19.390Z,96.40
2022-10-12T22:25:55.614Z,96.50
2022-10-12T22:28:29.282Z,96.50
2022-10-12T22:31:00.028Z,96.60
2022-10-12T22:33:27.962Z,96.80
2022-10-12T22:36:01.134Z,96.70
2022-10-12T22:38:36.501Z,96.70
2022-10-12T22:41:16.384Z,96.80
2022-10-12T22:43:48.668Z,96.80
2022-10-12T22:46:22.616Z,97.00
2022-10-12T22:48:50.567Z,97.10
2022-10-12T22:51:31.927Z,97.10
2022-10-12T22:54:02.275Z,97.00
2022-10-12T22:56:30.143Z,97.10
2022-10-12T22:59:00.789Z,97.30
2022-10-12T23:01:30.359Z,97.20
2022-10-12T23:04:00.379Z,97.20
2022-10-12T23:06:28.614Z,98.00
2022-10-12T23:08:58.265Z,98.80
2022-10-12T23:11:30.305Z,99.30
2022-10-12T23:13:59.776Z,99.30
2022-10-12T23:16:36.791Z,99.30
2022-10-12T23:19:09.353Z,99.60
2022-10-12T23:21:45.680Z,99.60
2022-10-12T23:24:16.974Z,99.40
2022-10-12T23:26:45.929Z,99.50
2022-10-12T23:29:29.870Z,99.50
2022-10-12T23:32:01.015Z,99.50
2022-10-12T23:34:35.451Z,99.40
2022-10-12T23:37:06.966Z,99.40
2022-10-12T23:39:46.844Z,99.40
2022-10-12T23:42:18.108Z,99.30
2022-10-12T23:44:50.819Z,99.30
2022-10-12T23:47:25.798Z,99.30
2022-10-12T23:49:54.518Z,99.30
2022-10-12T23:52:23.419Z,99.20
2022-10-12T23:54:53.297Z,99.20
2022-10-12T23:57:45.093Z,99.20
